TimePDT,TemperatureF,Dew PointF,Humidity,Sea Level PressureIn,VisibilityMPH,Wind Direction,Wind SpeedMPH,Gust SpeedMPH,PrecipitationIn,Events,Conditions,WindDirDegrees,DateUTC
12:53 AM,55.9,45.0,67,29.81,9.0,Calm,Calm,-,N/A,,Clear,0,2013-09-14 07:53:00
1:53 AM,55.0,45.0,69,29.81,9.0,Calm,Calm,-,N/A,,Clear,0,2013-09-14 08:53:00
2:53 AM,55.0,45.0,69,29.82,10.0,Calm,Calm,-,N/A,,Clear,0,2013-09-14 09:53:00
3:53 AM,53.1,44.1,71,29.83,10.0,Calm,Calm,-,N/A,,Clear,0,2013-09-14 10:53:00
4:53 AM,55.0,45.0,69,29.84,10.0,Calm,Calm,-,N/A,,Clear,0,2013-09-14 11:53:00
5:53 AM,57.0,46.0,67,29.84,10.0,Calm,Calm,-,N/A,,Clear,0,2013-09-14 12:53:00
6:53 AM,64.0,48.0,56,29.86,10.0,East,5.8,-,N/A,,Clear,80,2013-09-14 13:53:00
7:53 AM,71.1,50.0,47,29.88,10.0,ESE,9.2,-,N/A,,Clear,110,2013-09-14 14:53:00
8:53 AM,73.0,50.0,44,29.88,10.0,East,11.5,-,N/A,,Clear,90,2013-09-14 15:53:00
9:53 AM,78.1,51.1,39,29.89,10.0,East,11.5,-,N/A,,Clear,90,2013-09-14 16:53:00
10:53 AM,81.0,50.0,34,29.89,10.0,ESE,12.7,-,N/A,,Clear,110,2013-09-14 17:53:00
11:53 AM,84.0,48.9,29,29.88,10.0,ESE,10.4,19.6,N/A,,Clear,110,2013-09-14 18:53:00
12:53 PM,86.0,48.9,28,29.87,10.0,East,10.4,-,N/A,,Clear,100,2013-09-14 19:53:00
1:53 PM,89.1,45.0,22,29.85,10.0,SE,13.8,19.6,N/A,,Clear,130,2013-09-14 20:53:00
2:53 PM,91.0,43.0,19,29.83,10.0,East,11.5,17.3,N/A,,Clear,90,2013-09-14 21:53:00
3:53 PM,90.0,45.0,21,29.82,10.0,ESE,10.4,-,N/A,,Clear,120,2013-09-14 22:53:00
4:53 PM,89.1,44.1,21,29.81,10.0,SE,9.2,-,N/A,,Clear,140,2013-09-14 23:53:00
5:53 PM,82.9,46.0,27,29.82,10.0,ENE,3.5,-,N/A,,Clear,60,2013-09-15 00:53:00
6:40 PM,78.8,44.6,30,29.86,2.5,Calm,Calm,-,N/A,,Haze,0,2013-09-15 01:40:00
6:53 PM,77.0,42.1,29,29.82,2.5,Calm,Calm,-,N/A,,Haze,0,2013-09-15 01:53:00
7:15 PM,75.2,42.8,31,29.87,1.8,East,3.5,-,N/A,,Haze,80,2013-09-15 02:15:00
7:20 PM,75.2,42.8,31,29.87,3.0,Calm,Calm,-,N/A,,Haze,0,2013-09-15 02:20:00
7:53 PM,73.0,42.1,33,29.82,7.0,ENE,4.6,-,N/A,,Clear,60,2013-09-15 02:53:00
8:53 PM,73.0,39.9,30,29.83,10.0,ENE,6.9,-,N/A,,Clear,70,2013-09-15 03:53:00
9:53 PM,72.0,41.0,33,29.82,10.0,East,5.8,-,N/A,,Clear,80,2013-09-15 04:53:00
10:53 PM,73.0,42.1,33,29.82,10.0,East,11.5,-,N/A,,Clear,90,2013-09-15 05:53:00
11:53 PM,73.0,43.0,34,29.81,10.0,East,11.5,-,N/A,,Clear,90,2013-09-15 06:53:00